EGDM - Boscombe Down
Distance from station: E 5mi, 14km
Updated: 10/19/2017 7:50pm
Mostly Cloudy
Mostly Cloudy
 Wind from SW
Wind: SW 28 mph , 44 km/h
Temperature: 54°F , 12°C
Dew Point: 50°F , 10°C
Humidity: 88%
Barometer: 29.41 inHg , 996 hPa
Clouds: Mostly Cloudy
Visibility: 6 miles , 10 km
Cloud details: Mostly Cloudy 1100 ft
2017/10/20 02:50 EGDM 200250Z AUTO 23024KT 9999 BKN011/// 12/10 Q0996 RERA